createdAt,value
2023-08-08T00:01:18.891Z,70.50
2023-08-08T00:03:46.592Z,70.52
2023-08-08T00:06:14.760Z,71.06
2023-08-08T00:08:42.661Z,72.28
2023-08-08T00:11:10.255Z,72.10
2023-08-08T00:13:38.098Z,71.39
2023-08-08T00:16:06.445Z,71.03
2023-08-08T00:18:34.195Z,70.87
2023-08-08T00:21:01.975Z,70.76
2023-08-08T00:23:29.820Z,71.02
2023-08-08T00:25:57.499Z,71.03
2023-08-08T00:28:25.580Z,71.68
2023-08-08T00:30:54.397Z,72.83
2023-08-08T00:33:22.203Z,72.37
2023-08-08T00:35:49.960Z,71.63
2023-08-08T00:38:19.485Z,71.08
2023-08-08T00:40:47.680Z,70.86
2023-08-08T00:43:15.449Z,70.83
2023-08-08T00:45:44.665Z,71.05
2023-08-08T00:48:13.009Z,71.19
2023-08-08T00:50:45.655Z,71.75
2023-08-08T00:53:13.705Z,73.08
2023-08-08T00:55:42.137Z,72.66
2023-08-08T00:58:10.229Z,72.01
2023-08-08T01:00:38.058Z,71.57
2023-08-08T01:03:06.467Z,71.44
2023-08-08T01:05:39.714Z,71.54
2023-08-08T01:08:08.857Z,71.67
2023-08-08T01:10:40.750Z,71.90
2023-08-08T01:13:12.610Z,72.45
2023-08-08T01:15:40.877Z,73.70
2023-08-08T01:18:11.049Z,73.34
2023-08-08T01:20:39.618Z,72.47
2023-08-08T01:23:20.865Z,72.08
2023-08-08T01:25:49.751Z,71.84
2023-08-08T01:28:21.717Z,71.68
2023-08-08T01:30:49.748Z,71.85
2023-08-08T01:33:17.603Z,72.35
2023-08-08T01:35:51.904Z,73.02
2023-08-08T01:38:28.278Z,74.07
2023-08-08T01:40:59.121Z,73.88
2023-08-08T01:43:28.080Z,73.09
2023-08-08T01:45:56.441Z,72.45
2023-08-08T01:48:24.310Z,72.15
2023-08-08T01:50:52.942Z,71.88
2023-08-08T01:53:20.664Z,72.57
2023-08-08T01:55:48.387Z,72.11
2023-08-08T01:58:16.385Z,72.86
2023-08-08T02:00:45.460Z,74.48
2023-08-08T02:03:13.180Z,74.00
2023-08-08T02:05:41.670Z,72.87
2023-08-08T02:08:09.336Z,72.82
2023-08-08T02:10:36.953Z,72.28
2023-08-08T02:13:05.189Z,72.44
2023-08-08T02:15:32.838Z,72.59
2023-08-08T02:18:02.031Z,72.62
2023-08-08T02:20:30.004Z,73.05
2023-08-08T02:22:57.616Z,74.61
2023-08-08T02:25:25.299Z,74.59
2023-08-08T02:27:53.168Z,73.54
2023-08-08T02:30:21.022Z,72.75
2023-08-08T02:32:48.710Z,72.55
2023-08-08T02:35:16.736Z,72.48
2023-08-08T02:37:44.403Z,72.23
2023-08-08T02:40:12.341Z,72.25
2023-08-08T02:42:40.350Z,72.55
2023-08-08T02:45:08.783Z,73.51
2023-08-08T02:47:36.496Z,72.10
2023-08-08T02:50:04.938Z,70.44
2023-08-08T02:52:33.371Z,68.59
2023-08-08T02:55:01.064Z,67.11
2023-08-08T02:57:29.328Z,66.07
2023-08-08T02:59:57.255Z,64.87
2023-08-08T03:02:25.627Z,63.99
2023-08-08T03:04:54.333Z,62.97
2023-08-08T03:07:23.032Z,62.28
2023-08-08T03:09:51.596Z,61.12
2023-08-08T03:12:19.620Z,60.08
2023-08-08T03:14:48.517Z,59.69
2023-08-08T03:17:16.167Z,58.00
2023-08-08T03:19:44.859Z,57.36
2023-08-08T03:22:12.970Z,56.70
2023-08-08T03:24:41.049Z,55.05
2023-08-08T03:27:08.802Z,53.86
2023-08-08T03:29:36.557Z,52.46
2023-08-08T03:32:06.035Z,51.77
2023-08-08T03:34:34.213Z,51.07
2023-08-08T03:37:02.020Z,50.16
2023-08-08T03:39:29.843Z,49.30
2023-08-08T03:41:57.982Z,48.64
2023-08-08T03:44:26.128Z,46.62
2023-08-08T03:47:02.296Z,45.33
2023-08-08T03:49:37.748Z,45.69
2023-08-08T03:52:05.734Z,43.86
2023-08-08T03:54:33.836Z,43.01
2023-08-08T03:57:02.367Z,42.35
2023-08-08T03:59:30.292Z,42.36
2023-08-08T04:01:57.955Z,41.29
2023-08-08T04:04:25.727Z,40.66
2023-08-08T04:06:53.483Z,39.84
2023-08-08T04:09:21.170Z,39.48
2023-08-08T04:11:48.982Z,38.82
2023-08-08T04:14:16.727Z,38.17
2023-08-08T04:16:44.351Z,37.89
2023-08-08T04:19:12.096Z,37.63
2023-08-08T04:21:39.960Z,36.46
2023-08-08T04:24:09.089Z,35.25
2023-08-08T04:26:36.923Z,35.30
2023-08-08T04:29:04.963Z,34.33
2023-08-08T04:31:32.615Z,33.92
2023-08-08T04:34:02.636Z,33.27
2023-08-08T04:36:31.714Z,33.31
2023-08-08T04:38:59.420Z,32.56
2023-08-08T04:41:27.102Z,32.05
2023-08-08T04:43:54.867Z,31.39
2023-08-08T04:46:22.739Z,30.85
2023-08-08T04:48:50.678Z,30.52
2023-08-08T04:51:19.181Z,30.48
2023-08-08T04:53:46.752Z,29.46
2023-08-08T04:56:14.829Z,29.11
2023-08-08T04:58:42.530Z,28.18
2023-08-08T05:01:13.360Z,27.24
2023-08-08T05:03:41.750Z,27.13
2023-08-08T05:06:09.509Z,26.45
2023-08-08T05:08:37.303Z,25.90
2023-08-08T05:11:05.009Z,25.34
2023-08-08T05:13:32.671Z,25.73
2023-08-08T05:16:00.442Z,24.77
2023-08-08T05:18:28.107Z,24.09
2023-08-08T05:20:55.723Z,23.67
2023-08-08T05:23:23.585Z,24.03
2023-08-08T05:25:51.266Z,23.66
2023-08-08T05:28:18.933Z,23.45
2023-08-08T05:30:46.745Z,23.33
2023-08-08T05:33:14.571Z,22.16
2023-08-08T05:35:42.441Z,21.96
2023-08-08T05:38:10.095Z,21.90
2023-08-08T05:40:37.861Z,21.59
2023-08-08T05:43:05.903Z,21.03
2023-08-08T05:45:33.467Z,20.68
2023-08-08T05:48:01.783Z,20.54
2023-08-08T05:50:29.634Z,19.70
2023-08-08T05:52:57.425Z,19.69
2023-08-08T05:55:25.267Z,20.05
2023-08-08T05:57:53.027Z,19.58
2023-08-08T06:00:20.968Z,19.14
2023-08-08T06:02:48.654Z,20.05
2023-08-08T06:05:18.764Z,20.53
2023-08-08T06:07:46.605Z,21.10
2023-08-08T06:10:14.445Z,21.68
2023-08-08T06:12:42.875Z,21.82
2023-08-08T06:15:10.972Z,21.86
2023-08-08T06:17:38.755Z,22.42
2023-08-08T06:20:08.333Z,23.49
2023-08-08T06:22:36.246Z,24.47
2023-08-08T06:25:04.708Z,25.72
2023-08-08T06:27:32.310Z,26.03
2023-08-08T06:30:00.391Z,26.57
2023-08-08T06:32:28.548Z,27.07
2023-08-08T06:34:56.456Z,27.09
2023-08-08T06:37:24.460Z,26.27
2023-08-08T06:39:52.065Z,25.00
2023-08-08T06:42:22.920Z,24.51
2023-08-08T06:44:58.072Z,25.70
2023-08-08T06:47:25.863Z,26.76
2023-08-08T06:49:54.053Z,27.62
2023-08-08T06:52:23.700Z,27.93
2023-08-08T06:54:51.436Z,27.69
2023-08-08T06:57:19.087Z,27.88
2023-08-08T06:59:51.766Z,28.66
2023-08-08T07:02:20.558Z,29.34
2023-08-08T07:04:48.506Z,30.21
2023-08-08T07:07:16.325Z,31.31
2023-08-08T07:09:45.144Z,32.09
2023-08-08T07:12:12.933Z,32.67
2023-08-08T07:14:41.007Z,33.36
2023-08-08T07:17:08.667Z,33.50
2023-08-08T07:19:37.603Z,34.05
2023-08-08T07:22:05.571Z,34.76
2023-08-08T07:24:33.245Z,35.37
2023-08-08T07:27:00.988Z,35.96
2023-08-08T07:29:28.693Z,36.58
2023-08-08T07:31:56.924Z,36.61
2023-08-08T07:34:24.705Z,37.04
2023-08-08T07:36:52.515Z,37.18
2023-08-08T07:39:20.322Z,37.33
2023-08-08T07:41:48.043Z,37.67
2023-08-08T07:44:15.720Z,37.84
2023-08-08T07:46:43.619Z,38.20
2023-08-08T07:49:11.507Z,38.15
2023-08-08T07:51:39.191Z,38.29
2023-08-08T07:54:09.868Z,37.96
2023-08-08T07:56:38.147Z,37.25
2023-08-08T07:59:06.643Z,37.41
2023-08-08T08:01:34.428Z,37.15
2023-08-08T08:04:04.181Z,37.04
2023-08-08T08:06:32.561Z,36.94
2023-08-08T08:09:00.481Z,36.96
2023-08-08T08:11:28.948Z,37.13
2023-08-08T08:13:56.728Z,37.25
2023-08-08T08:16:25.418Z,37.42
2023-08-08T08:18:53.089Z,37.52
2023-08-08T08:21:20.714Z,37.58
2023-08-08T08:23:49.109Z,38.26
2023-08-08T08:26:16.935Z,38.56
2023-08-08T08:28:44.726Z,39.23
2023-08-08T08:31:12.390Z,40.00
2023-08-08T08:33:40.308Z,40.01
2023-08-08T08:36:08.237Z,40.49
2023-08-08T08:38:35.843Z,40.90
2023-08-08T08:41:04.654Z,41.37
2023-08-08T08:43:33.518Z,41.76
2023-08-08T08:46:11.612Z,42.00
2023-08-08T08:48:39.508Z,42.51
2023-08-08T08:51:07.687Z,42.71
2023-08-08T08:53:40.933Z,42.68
2023-08-08T08:56:10.089Z,42.52
2023-08-08T08:58:37.916Z,42.77
2023-08-08T09:01:05.980Z,43.34
2023-08-08T09:03:34.018Z,43.27
2023-08-08T09:06:02.790Z,43.04
2023-08-08T09:08:30.826Z,42.78
2023-08-08T09:10:58.969Z,42.85
2023-08-08T09:13:27.930Z,42.27
2023-08-08T09:15:56.729Z,42.71
2023-08-08T09:18:26.157Z,42.28
2023-08-08T09:20:55.841Z,41.40
2023-08-08T09:23:23.800Z,41.04
2023-08-08T09:25:51.708Z,40.71
2023-08-08T09:28:19.753Z,40.81
2023-08-08T09:30:47.840Z,40.72
2023-08-08T09:33:15.541Z,40.45
2023-08-08T09:35:43.209Z,40.24
2023-08-08T09:38:11.388Z,40.43
2023-08-08T09:40:39.181Z,40.29
2023-08-08T09:43:10.025Z,39.79
2023-08-08T09:45:43.152Z,39.90
2023-08-08T09:48:11.036Z,39.79
2023-08-08T09:50:40.998Z,39.39
2023-08-08T09:53:09.793Z,39.00
2023-08-08T09:55:39.770Z,38.88
2023-08-08T09:58:10.201Z,38.91
2023-08-08T10:00:38.298Z,38.77
2023-08-08T10:03:06.777Z,38.84
2023-08-08T10:05:34.944Z,38.85
2023-08-08T10:08:02.746Z,38.83
2023-08-08T10:10:31.957Z,38.80
2023-08-08T10:13:00.622Z,38.75
2023-08-08T10:15:28.655Z,38.44
2023-08-08T10:17:59.810Z,38.30
2023-08-08T10:20:27.673Z,37.92
2023-08-08T10:22:58.037Z,37.93
2023-08-08T10:25:29.723Z,37.50
2023-08-08T10:28:19.537Z,37.20
2023-08-08T10:30:52.274Z,37.00
2023-08-08T10:33:22.641Z,37.29
2023-08-08T10:36:00.408Z,37.08
2023-08-08T10:38:44.081Z,36.86
2023-08-08T10:41:20.084Z,36.33
2023-08-08T10:43:54.584Z,36.06
2023-08-08T10:46:30.978Z,36.35
2023-08-08T10:49:01.727Z,36.34
2023-08-08T10:51:48.085Z,36.72
2023-08-08T10:54:17.040Z,37.01
2023-08-08T10:56:52.796Z,36.54
2023-08-08T10:59:26.193Z,36.62
2023-08-08T11:01:54.663Z,36.06
2023-08-08T11:04:24.691Z,36.37
2023-08-08T11:06:55.533Z,36.25
2023-08-08T11:09:24.701Z,36.56
2023-08-08T11:11:52.347Z,36.26
2023-08-08T11:14:22.673Z,35.95
2023-08-08T11:16:52.661Z,35.66
2023-08-08T11:19:22.302Z,35.66
2023-08-08T11:21:50.610Z,35.81
2023-08-08T11:24:18.486Z,36.07
2023-08-08T11:26:49.099Z,36.06
2023-08-08T11:29:16.895Z,36.38
2023-08-08T11:31:45.152Z,36.42
2023-08-08T11:34:13.973Z,36.33
2023-08-08T11:36:42.067Z,36.65
2023-08-08T11:39:13.235Z,36.74
2023-08-08T11:41:42.565Z,37.17
2023-08-08T11:44:10.533Z,37.28
2023-08-08T11:46:47.022Z,37.44
2023-08-08T11:49:17.653Z,37.28
2023-08-08T11:51:47.331Z,37.51
2023-08-08T11:54:16.025Z,37.52
2023-08-08T11:56:44.664Z,37.40
2023-08-08T11:59:13.850Z,37.53
2023-08-08T12:01:44.117Z,37.12
2023-08-08T12:04:11.848Z,37.09
2023-08-08T12:06:45.539Z,37.30
2023-08-08T12:09:16.724Z,37.47
2023-08-08T12:11:46.360Z,37.24
2023-08-08T12:14:16.189Z,37.31
2023-08-08T12:16:45.129Z,37.45
2023-08-08T12:19:14.066Z,37.47
2023-08-08T12:21:41.749Z,37.87
2023-08-08T12:24:09.625Z,38.04
2023-08-08T12:26:38.119Z,38.40
2023-08-08T12:29:05.955Z,38.10
2023-08-08T12:31:33.613Z,37.71
2023-08-08T12:34:01.427Z,37.67
2023-08-08T12:36:29.429Z,36.96
2023-08-08T12:38:57.150Z,36.80
2023-08-08T12:41:26.149Z,36.87
2023-08-08T12:43:54.049Z,36.96
2023-08-08T12:46:21.699Z,37.23
2023-08-08T12:48:49.525Z,37.39
2023-08-08T12:51:18.241Z,37.48
2023-08-08T12:53:46.105Z,37.38
2023-08-08T12:56:14.020Z,37.02
2023-08-08T12:58:42.139Z,36.25
2023-08-08T13:01:09.860Z,36.59
2023-08-08T13:03:37.450Z,36.46
2023-08-08T13:06:05.324Z,36.16
2023-08-08T13:08:33.877Z,36.16
2023-08-08T13:11:01.801Z,36.22
2023-08-08T13:13:29.646Z,36.30
2023-08-08T13:15:57.659Z,36.64
2023-08-08T13:18:25.304Z,36.94
2023-08-08T13:20:53.616Z,37.07
2023-08-08T13:23:21.436Z,37.14
2023-08-08T13:25:50.392Z,37.18
2023-08-08T13:28:18.246Z,37.38
2023-08-08T13:30:46.273Z,37.59
2023-08-08T13:33:13.936Z,37.87
2023-08-08T13:35:41.823Z,37.89
2023-08-08T13:38:15.950Z,38.19
2023-08-08T13:40:44.068Z,38.46
2023-08-08T13:43:11.830Z,38.66
2023-08-08T13:45:39.479Z,38.77
2023-08-08T13:48:07.699Z,38.63
2023-08-08T13:50:35.408Z,38.40
2023-08-08T13:53:03.161Z,38.22
2023-08-08T13:55:31.236Z,38.51
2023-08-08T13:57:59.299Z,38.40
2023-08-08T14:00:27.992Z,38.44
2023-08-08T14:02:56.037Z,38.62
2023-08-08T14:05:24.995Z,38.61
2023-08-08T14:07:52.595Z,38.58
2023-08-08T14:10:21.391Z,38.45
2023-08-08T14:12:49.004Z,38.42
2023-08-08T14:15:16.586Z,38.54
2023-08-08T14:17:45.881Z,38.51
2023-08-08T14:20:13.831Z,38.64
2023-08-08T14:22:41.473Z,38.92
2023-08-08T14:25:09.402Z,39.12
2023-08-08T14:27:37.317Z,39.37
2023-08-08T14:30:05.773Z,39.49
2023-08-08T14:32:34.226Z,39.65
2023-08-08T14:35:03.911Z,39.82
2023-08-08T14:37:32.557Z,39.74
2023-08-08T14:40:00.442Z,39.97
2023-08-08T14:42:28.079Z,40.04
2023-08-08T14:44:56.099Z,40.00
2023-08-08T14:47:24.306Z,40.05
2023-08-08T14:49:52.438Z,40.24
2023-08-08T14:52:20.299Z,40.36
2023-08-08T14:54:48.302Z,40.41
2023-08-08T14:57:16.014Z,40.34
2023-08-08T14:59:43.886Z,40.65
2023-08-08T15:02:11.937Z,40.98
2023-08-08T15:04:39.663Z,41.03
2023-08-08T15:07:07.480Z,41.21
2023-08-08T15:09:35.382Z,41.47
2023-08-08T15:12:02.958Z,41.43
2023-08-08T15:14:30.875Z,41.45
2023-08-08T15:16:58.968Z,41.60
2023-08-08T15:19:27.017Z,41.65
2023-08-08T15:21:55.791Z,41.67
2023-08-08T15:24:23.524Z,41.95
2023-08-08T15:26:51.095Z,42.11
2023-08-08T15:29:18.956Z,42.26
2023-08-08T15:31:46.896Z,42.41
2023-08-08T15:34:14.563Z,42.46
2023-08-08T15:36:42.516Z,42.67
2023-08-08T15:39:10.544Z,42.95
2023-08-08T15:41:38.317Z,43.20
2023-08-08T15:44:06.039Z,43.27
2023-08-08T15:46:34.025Z,43.29
2023-08-08T15:49:01.661Z,43.45
2023-08-08T15:51:29.536Z,43.76
2023-08-08T15:53:57.225Z,44.02
2023-08-08T15:56:24.823Z,44.28
2023-08-08T15:58:52.674Z,44.39
2023-08-08T16:01:20.313Z,44.86
2023-08-08T16:03:47.973Z,45.82
2023-08-08T16:06:15.719Z,46.50
2023-08-08T16:08:43.570Z,46.62
2023-08-08T16:11:11.186Z,47.29
2023-08-08T16:13:39.122Z,47.53
2023-08-08T16:16:06.761Z,47.95
2023-08-08T16:18:34.796Z,48.22
2023-08-08T16:21:02.702Z,48.39
2023-08-08T16:23:31.599Z,48.48
2023-08-08T16:25:59.315Z,49.08
2023-08-08T16:28:29.540Z,49.87
2023-08-08T16:30:57.711Z,50.14
2023-08-08T16:33:25.696Z,50.72
2023-08-08T16:35:54.049Z,50.81
2023-08-08T16:38:23.881Z,51.17
2023-08-08T16:40:54.820Z,51.28
2023-08-08T16:43:22.830Z,51.17
2023-08-08T16:45:50.738Z,51.13
2023-08-08T16:48:18.580Z,50.75
2023-08-08T16:50:46.194Z,50.90
2023-08-08T16:53:14.360Z,50.85
2023-08-08T16:55:43.193Z,51.33
2023-08-08T16:58:11.375Z,51.53
2023-08-08T17:00:39.121Z,51.30
2023-08-08T17:03:07.123Z,51.64
2023-08-08T17:05:35.250Z,51.96
2023-08-08T17:08:03.142Z,52.23
2023-08-08T17:10:31.149Z,52.12
2023-08-08T17:12:59.302Z,52.29
2023-08-08T17:15:27.049Z,52.33
2023-08-08T17:17:54.796Z,52.76
2023-08-08T17:20:22.576Z,52.89
2023-08-08T17:22:50.318Z,53.01
2023-08-08T17:25:18.171Z,53.17
2023-08-08T17:27:46.860Z,53.22
2023-08-08T17:30:14.753Z,53.41
2023-08-08T17:32:42.385Z,53.60
2023-08-08T17:35:10.241Z,53.56
2023-08-08T17:37:37.913Z,53.56
2023-08-08T17:40:06.181Z,53.89
2023-08-08T17:42:34.904Z,53.76
2023-08-08T17:45:05.008Z,54.21
2023-08-08T17:50:28.734Z,54.30
2023-08-08T17:52:57.376Z,54.42
2023-08-08T17:55:51.302Z,54.60
2023-08-08T17:58:45.887Z,54.67
2023-08-08T18:01:14.330Z,54.88
2023-08-08T18:03:42.244Z,54.97
2023-08-08T18:06:10.112Z,54.99
2023-08-08T18:08:38.156Z,55.13
2023-08-08T18:11:05.739Z,55.44
2023-08-08T18:13:33.520Z,55.61
2023-08-08T18:16:02.350Z,55.48
2023-08-08T18:18:30.293Z,55.65
2023-08-08T18:20:57.991Z,56.10
2023-08-08T18:23:28.800Z,55.97
2023-08-08T18:25:56.674Z,56.23
2023-08-08T18:28:24.350Z,56.24
2023-08-08T18:30:52.192Z,56.61
2023-08-08T18:33:20.113Z,57.03
2023-08-08T18:35:48.241Z,57.28
2023-08-08T18:38:18.742Z,57.59
2023-08-08T18:40:46.651Z,57.32
2023-08-08T18:43:14.305Z,57.75
2023-08-08T18:45:42.201Z,57.82
2023-08-08T18:48:10.364Z,57.82
2023-08-08T18:50:38.365Z,57.99
2023-08-08T18:53:07.525Z,58.19
2023-08-08T18:55:36.124Z,58.28
2023-08-08T18:58:04.143Z,58.37
2023-08-08T19:00:31.984Z,58.33
2023-08-08T19:02:59.978Z,58.62
2023-08-08T19:05:29.463Z,58.77
2023-08-08T19:07:58.574Z,59.00
2023-08-08T19:10:26.196Z,58.86
2023-08-08T19:12:53.811Z,58.91
2023-08-08T19:15:22.303Z,59.21
2023-08-08T19:17:56.228Z,59.50
2023-08-08T19:20:25.566Z,59.96
2023-08-08T19:22:53.444Z,59.92
2023-08-08T19:25:22.476Z,59.77
2023-08-08T19:27:54.618Z,59.77
2023-08-08T19:30:23.571Z,59.88
2023-08-08T19:32:51.592Z,59.91
2023-08-08T19:35:19.392Z,59.92
2023-08-08T19:37:47.075Z,60.26
2023-08-08T19:40:14.957Z,60.44
2023-08-08T19:42:44.722Z,60.44
2023-08-08T19:45:12.409Z,60.66
2023-08-08T19:47:40.439Z,60.58
2023-08-08T19:50:08.637Z,60.85
2023-08-08T19:52:36.528Z,60.95
2023-08-08T19:55:04.891Z,61.16
2023-08-08T19:57:35.096Z,61.61
2023-08-08T20:00:05.284Z,61.58
2023-08-08T20:02:40.563Z,61.87
2023-08-08T20:05:09.587Z,62.02
2023-08-08T20:07:37.352Z,62.03
2023-08-08T20:10:06.731Z,61.69
2023-08-08T20:12:34.600Z,61.75
2023-08-08T20:15:02.529Z,61.91
2023-08-08T20:17:34.662Z,62.11
2023-08-08T20:20:02.809Z,62.28
2023-08-08T20:22:30.662Z,62.48
2023-08-08T20:24:58.588Z,62.74
2023-08-08T20:27:26.408Z,62.70
2023-08-08T20:29:54.287Z,62.56
2023-08-08T20:32:21.890Z,62.68
2023-08-08T20:34:49.917Z,62.81
2023-08-08T20:37:19.950Z,62.78
2023-08-08T20:39:47.619Z,62.92
2023-08-08T20:42:15.545Z,62.96
2023-08-08T20:44:43.533Z,63.21
2023-08-08T20:47:11.580Z,64.27
2023-08-08T20:49:39.550Z,63.73
2023-08-08T20:52:07.655Z,62.68
2023-08-08T20:54:35.361Z,61.89
2023-08-08T20:57:03.539Z,61.62
2023-08-08T20:59:49.214Z,61.49
2023-08-08T21:02:18.624Z,61.72
2023-08-08T21:04:53.517Z,61.82
2023-08-08T21:07:21.458Z,62.05
2023-08-08T21:09:49.184Z,62.07
2023-08-08T21:12:17.107Z,62.75
2023-08-08T21:14:45.060Z,62.65
2023-08-08T21:17:13.598Z,63.28
2023-08-08T21:19:41.824Z,63.05
2023-08-08T21:22:10.647Z,63.25
2023-08-08T21:24:38.653Z,63.65
2023-08-08T21:27:06.918Z,63.30
2023-08-08T21:29:34.964Z,63.67
2023-08-08T21:32:02.564Z,63.67
2023-08-08T21:34:30.516Z,63.68
2023-08-08T21:36:58.124Z,63.75
2023-08-08T21:39:25.986Z,63.94
2023-08-08T21:41:53.676Z,64.08
2023-08-08T21:44:24.146Z,64.00
2023-08-08T21:46:53.069Z,64.22
2023-08-08T21:49:20.690Z,64.46
2023-08-08T21:51:48.566Z,64.56
2023-08-08T21:54:16.864Z,65.63
2023-08-08T21:56:46.339Z,65.16
2023-08-08T21:59:14.152Z,64.29
2023-08-08T22:01:41.959Z,63.67
2023-08-08T22:04:09.888Z,63.47
2023-08-08T22:06:37.714Z,63.37
2023-08-08T22:09:09.121Z,63.55
2023-08-08T22:11:36.825Z,63.62
2023-08-08T22:14:04.791Z,63.90
2023-08-08T22:16:32.757Z,63.95
2023-08-08T22:19:00.605Z,64.19
2023-08-08T22:21:28.695Z,64.24
2023-08-08T22:23:56.453Z,64.75
2023-08-08T22:26:24.634Z,64.98
2023-08-08T22:28:59.839Z,65.28
2023-08-08T22:31:28.249Z,65.50
2023-08-08T22:33:56.431Z,65.91
2023-08-08T22:36:24.259Z,67.27
2023-08-08T22:38:52.000Z,66.92
2023-08-08T22:41:19.731Z,65.98
2023-08-08T22:43:47.488Z,65.51
2023-08-08T22:46:15.382Z,65.27
2023-08-08T22:48:43.075Z,65.16
2023-08-08T22:51:10.777Z,65.40
2023-08-08T22:53:38.675Z,65.75
2023-08-08T22:56:06.429Z,65.97
2023-08-08T22:58:58.899Z,66.10
2023-08-08T23:01:26.552Z,66.70
2023-08-08T23:03:54.407Z,67.10
2023-08-08T23:06:22.038Z,68.41
2023-08-08T23:08:50.745Z,68.33
2023-08-08T23:11:18.497Z,67.44
2023-08-08T23:13:46.478Z,67.17
2023-08-08T23:16:14.351Z,66.93
2023-08-08T23:18:42.699Z,66.93
2023-08-08T23:21:10.268Z,66.93
2023-08-08T23:23:38.248Z,67.61
2023-08-08T23:26:06.072Z,67.58
2023-08-08T23:28:33.838Z,67.89
2023-08-08T23:31:01.800Z,68.62
2023-08-08T23:33:30.183Z,69.84
2023-08-08T23:35:57.887Z,69.73
2023-08-08T23:38:25.796Z,68.88
2023-08-08T23:40:53.427Z,68.35
2023-08-08T23:43:21.026Z,68.08
2023-08-08T23:45:48.909Z,68.08
2023-08-08T23:48:16.526Z,68.35
2023-08-08T23:50:44.152Z,68.57
2023-08-08T23:53:11.873Z,68.78
2023-08-08T23:55:41.518Z,69.47
2023-08-08T23:58:09.308Z,70.51
